createdAt,value
2023-02-06T00:00:43.000Z,92.2
2023-02-06T00:01:59.685Z,91.9
2023-02-06T00:03:15.000Z,91.8
2023-02-06T00:04:32.000Z,91.9
2023-02-06T00:05:48.000Z,91.8
2023-02-06T00:07:04.000Z,91.1
2023-02-06T00:08:21.000Z,90.9
2023-02-06T00:09:37.000Z,90.9
2023-02-06T00:10:53.740Z,91
2023-02-06T00:12:10.000Z,91
2023-02-06T00:13:25.348Z,91
2023-02-06T00:14:41.622Z,90.7
2023-02-06T00:15:57.000Z,90.4
2023-02-06T00:17:14.000Z,90.5
2023-02-06T00:18:30.529Z,91
2023-02-06T00:19:46.000Z,90.8
2023-02-06T00:21:03.000Z,90.8
2023-02-06T00:22:19.000Z,91.2
2023-02-06T00:23:35.000Z,91.8
2023-02-06T00:24:52.000Z,92.3
2023-02-06T00:26:08.000Z,92.8
2023-02-06T00:27:24.000Z,92.8
2023-02-06T00:28:40.000Z,92.7
2023-02-06T00:29:57.000Z,92.5
2023-02-06T00:31:12.000Z,92.2
2023-02-06T00:32:28.000Z,92.5
2023-02-06T00:33:45.000Z,92.3
2023-02-06T00:35:01.000Z,92.5
2023-02-06T00:36:17.000Z,92.3
2023-02-06T00:37:33.000Z,92.5
2023-02-06T00:38:50.000Z,92.1
2023-02-06T00:40:06.000Z,91.4
2023-02-06T00:41:22.000Z,91
2023-02-06T00:42:39.000Z,90.7
2023-02-06T00:43:55.000Z,90.7
2023-02-06T00:45:11.000Z,91
2023-02-06T00:46:28.000Z,90.5
2023-02-06T00:47:44.291Z,90.3
2023-02-06T00:48:59.000Z,90.6
2023-02-06T00:50:15.000Z,90.7
2023-02-06T00:51:32.000Z,90.8
2023-02-06T00:52:48.000Z,90.7
2023-02-06T00:54:04.000Z,90.8
2023-02-06T00:55:21.000Z,90.7
2023-02-06T00:56:37.000Z,90.8
2023-02-06T00:57:53.000Z,90.9
2023-02-06T00:59:10.000Z,91
2023-02-06T01:00:26.266Z,90.8
2023-02-06T01:01:42.000Z,90.9
2023-02-06T01:02:58.000Z,91.3
2023-02-06T01:04:15.000Z,91.2
2023-02-06T01:05:31.000Z,91.2
2023-02-06T01:06:46.000Z,91.4
2023-02-06T01:08:03.000Z,91.3
2023-02-06T01:09:19.000Z,91.6
2023-02-06T01:10:35.000Z,91.8
2023-02-06T01:11:51.000Z,91.9
2023-02-06T01:13:08.000Z,92.3
2023-02-06T01:14:24.000Z,92.6
2023-02-06T01:15:40.000Z,92.7
2023-02-06T01:16:57.000Z,92.5
2023-02-06T01:18:13.000Z,92.3
2023-02-06T01:19:29.000Z,92.2
2023-02-06T01:20:46.000Z,91.9
2023-02-06T01:22:02.295Z,91.6
2023-02-06T01:23:18.000Z,92
2023-02-06T01:24:33.000Z,92.7
2023-02-06T01:25:50.000Z,93.3
2023-02-06T01:27:06.000Z,93.6
2023-02-06T01:28:22.000Z,93.9
2023-02-06T01:29:39.000Z,94.1
2023-02-06T01:30:55.000Z,94
2023-02-06T01:32:10.000Z,93.9
2023-02-06T01:33:26.984Z,93.8
2023-02-06T01:34:43.270Z,93.8
2023-02-06T01:35:59.000Z,93.7
2023-02-06T01:37:15.000Z,93.6
2023-02-06T01:38:32.000Z,93.5
2023-02-06T01:39:48.000Z,93.4
2023-02-06T01:41:04.000Z,93.2
2023-02-06T01:42:21.000Z,92.9
2023-02-06T01:43:37.000Z,92.5
2023-02-06T01:44:53.000Z,92.5
2023-02-06T01:46:09.928Z,92.8
2023-02-06T01:47:26.000Z,93
2023-02-06T01:48:41.000Z,92.8
2023-02-06T01:49:57.000Z,92.9
2023-02-06T01:51:14.000Z,93.1
2023-02-06T01:52:30.000Z,92.7
2023-02-06T01:53:46.000Z,92.5
2023-02-06T01:55:03.000Z,92.2
2023-02-06T01:56:19.000Z,91.8
2023-02-06T01:57:35.000Z,91.4
2023-02-06T01:58:51.000Z,91.7
2023-02-06T02:00:08.000Z,92.2
2023-02-06T02:01:24.000Z,92.5
2023-02-06T02:02:40.000Z,92.4
2023-02-06T02:03:57.000Z,92.2
2023-02-06T02:05:12.000Z,92.4
2023-02-06T02:06:28.000Z,92.3
2023-02-06T02:07:45.000Z,92
2023-02-06T02:09:01.262Z,91.5
2023-02-06T02:10:17.000Z,91.8
2023-02-06T02:11:33.000Z,91.5
2023-02-06T02:12:50.000Z,91.5
2023-02-06T02:14:06.000Z,91.7
2023-02-06T02:15:22.000Z,91.9
2023-02-06T02:16:39.000Z,92
2023-02-06T02:17:55.000Z,92.2
2023-02-06T02:19:11.000Z,92.7
2023-02-06T02:20:27.000Z,93.2
2023-02-06T02:21:44.000Z,93.3
2023-02-06T02:22:59.000Z,93.9
2023-02-06T02:24:15.000Z,94.3
2023-02-06T02:25:32.122Z,94.1
2023-02-06T02:26:48.000Z,94.2
2023-02-06T02:28:04.000Z,94.3
2023-02-06T02:29:21.000Z,94.4
2023-02-06T02:30:37.000Z,94.6
2023-02-06T02:31:53.000Z,94.6
2023-02-06T02:33:09.000Z,94
2023-02-06T02:34:26.000Z,93
2023-02-06T02:35:42.000Z,92.6
2023-02-06T02:36:58.000Z,92.4
2023-02-06T02:38:15.000Z,93.2
2023-02-06T02:39:31.000Z,93.6
2023-02-06T02:40:46.000Z,93.8
2023-02-06T02:42:02.000Z,93.9
2023-02-06T02:43:19.000Z,93.8
2023-02-06T02:44:35.000Z,93.8
2023-02-06T02:45:51.000Z,94
2023-02-06T02:47:08.000Z,94.3
2023-02-06T02:48:24.000Z,94.4
2023-02-06T02:49:40.000Z,94.3
2023-02-06T02:50:57.000Z,94.2
2023-02-06T02:52:13.000Z,94.4
2023-02-06T02:53:29.000Z,94.8
2023-02-06T02:54:45.000Z,94.7
2023-02-06T02:56:02.000Z,94.4
2023-02-06T02:57:18.000Z,94.2
2023-02-06T02:58:33.000Z,93.9
2023-02-06T02:59:50.000Z,94.1
2023-02-06T03:01:06.000Z,93.9
2023-02-06T03:02:22.000Z,93.8
2023-02-06T03:03:39.000Z,93.9
2023-02-06T03:04:55.000Z,93.8
2023-02-06T03:06:11.000Z,93.5
2023-02-06T03:07:27.000Z,93.1
2023-02-06T03:08:44.000Z,93.5
2023-02-06T03:10:00.000Z,93.7
2023-02-06T03:11:16.000Z,93.7
2023-02-06T03:12:33.000Z,93.5
2023-02-06T03:13:49.000Z,93.5
2023-02-06T03:15:05.000Z,93.5
2023-02-06T03:16:20.000Z,93.2
2023-02-06T03:17:37.000Z,92.8
2023-02-06T03:18:53.000Z,92.8
2023-02-06T03:20:09.000Z,92.9
2023-02-06T03:21:26.000Z,92.9
2023-02-06T03:22:42.413Z,92.4
2023-02-06T03:23:58.000Z,92.2
2023-02-06T03:25:15.000Z,92.1
2023-02-06T03:26:31.000Z,92.3
2023-02-06T03:27:47.596Z,92.9
2023-02-06T03:29:03.000Z,93.3
2023-02-06T03:30:20.000Z,93.3
2023-02-06T03:31:36.000Z,93.1
2023-02-06T03:32:52.000Z,92.9
2023-02-06T03:34:08.000Z,92.9
2023-02-06T03:35:24.000Z,93.4
2023-02-06T03:36:40.000Z,93.5
2023-02-06T03:37:57.000Z,93
2023-02-06T03:39:13.000Z,92.5
2023-02-06T03:40:29.000Z,92.5
2023-02-06T03:41:45.000Z,92.1
2023-02-06T03:43:02.000Z,91.8
2023-02-06T03:44:18.000Z,91.8
2023-02-06T03:45:34.000Z,92
2023-02-06T03:46:51.000Z,92.4
2023-02-06T03:48:07.000Z,92.5
2023-02-06T03:49:23.000Z,92.3
2023-02-06T03:50:39.000Z,92.3
2023-02-06T03:51:55.000Z,92.3
2023-02-06T03:53:11.000Z,92.3
2023-02-06T03:54:27.000Z,92.5
2023-02-06T03:55:44.000Z,92.3
2023-02-06T03:57:00.000Z,92.2
2023-02-06T03:58:16.000Z,92.2
2023-02-06T03:59:33.000Z,92.3
2023-02-06T04:00:49.000Z,92.2
2023-02-06T04:02:05.000Z,92.3
2023-02-06T04:03:21.000Z,92.3
2023-02-06T04:04:38.000Z,92
2023-02-06T04:05:54.000Z,91.6
2023-02-06T04:07:10.000Z,91.3
2023-02-06T04:08:27.000Z,91.3
2023-02-06T04:09:42.000Z,91.6
2023-02-06T04:10:58.000Z,91.7
2023-02-06T04:12:14.000Z,91.7
2023-02-06T04:13:31.000Z,91.8
2023-02-06T04:14:47.000Z,91.7
2023-02-06T04:16:03.000Z,91.9
2023-02-06T04:17:20.000Z,91.9
2023-02-06T04:18:36.000Z,91.9
2023-02-06T04:19:52.000Z,92.2
2023-02-06T04:21:09.000Z,92.4
2023-02-06T04:22:25.302Z,92.6
2023-02-06T04:23:41.000Z,92.8
2023-02-06T04:24:57.000Z,92.7
2023-02-06T04:26:14.000Z,92.7
2023-02-06T04:27:29.000Z,92.8
2023-02-06T04:28:45.000Z,92.7
2023-02-06T04:30:02.101Z,92.4
2023-02-06T04:31:18.000Z,92.3
2023-02-06T04:32:34.676Z,92.2
2023-02-06T04:33:51.000Z,92
2023-02-06T04:35:07.000Z,92
2023-02-06T04:36:23.000Z,92.2
2023-02-06T04:37:39.000Z,92.2
2023-02-06T04:38:56.000Z,91.8
2023-02-06T04:40:12.000Z,91.9
2023-02-06T04:41:28.000Z,92
2023-02-06T04:42:45.000Z,91.9
2023-02-06T04:44:01.000Z,91.9
2023-02-06T04:45:17.000Z,91.8
2023-02-06T04:46:32.000Z,91.7
2023-02-06T04:47:49.000Z,91.7
2023-02-06T04:49:05.000Z,91.7
2023-02-06T04:50:21.000Z,91.9
2023-02-06T04:51:38.000Z,91.5
2023-02-06T04:52:54.000Z,91.5
2023-02-06T04:54:10.000Z,91.3
2023-02-06T04:55:27.000Z,91.3
2023-02-06T04:56:43.000Z,91.1
2023-02-06T04:57:59.000Z,91
2023-02-06T04:59:15.000Z,90.8
2023-02-06T05:00:32.000Z,90.6
2023-02-06T05:01:48.000Z,90.7
2023-02-06T05:03:03.000Z,90.9
2023-02-06T05:04:20.000Z,91
2023-02-06T05:05:36.000Z,91
2023-02-06T05:06:52.000Z,90.9
2023-02-06T05:08:08.000Z,90.9
2023-02-06T05:09:25.000Z,90.8
2023-02-06T05:10:41.000Z,90.7
2023-02-06T05:11:57.000Z,90.6
2023-02-06T05:13:14.000Z,90.6
2023-02-06T05:14:30.000Z,90.6
2023-02-06T05:15:46.000Z,90.6
2023-02-06T05:17:03.000Z,90.5
2023-02-06T05:18:19.323Z,90.6
2023-02-06T05:19:35.000Z,90.6
2023-02-06T05:20:50.000Z,90.7
2023-02-06T05:22:07.000Z,90.9
2023-02-06T05:23:23.000Z,90.9
2023-02-06T05:24:39.000Z,91.1
2023-02-06T05:25:56.100Z,91.1
2023-02-06T05:27:12.000Z,90.8
2023-02-06T05:28:28.000Z,90.6
2023-02-06T05:29:45.000Z,90.7
2023-02-06T05:31:01.000Z,91
2023-02-06T05:32:17.000Z,91.1
2023-02-06T05:33:33.000Z,91.2
2023-02-06T05:34:50.000Z,91.1
2023-02-06T05:36:06.444Z,91.1
2023-02-06T05:37:22.000Z,91
2023-02-06T05:38:38.074Z,91.1
2023-02-06T05:39:54.000Z,91.2
2023-02-06T05:41:10.000Z,91.1
2023-02-06T05:42:26.000Z,91.1
2023-02-06T05:43:43.000Z,91.1
2023-02-06T05:44:59.000Z,91.1
2023-02-06T05:46:15.000Z,91.4
2023-02-06T05:47:31.000Z,91.5
2023-02-06T05:48:47.424Z,91.6
2023-02-06T05:50:03.000Z,91.7
2023-02-06T05:51:20.000Z,91.8
2023-02-06T05:52:36.000Z,92
2023-02-06T05:53:52.000Z,92.2
2023-02-06T05:55:08.000Z,92.1
2023-02-06T05:56:25.000Z,92
2023-02-06T05:57:41.495Z,92
2023-02-06T05:58:57.000Z,92
2023-02-06T06:00:14.000Z,91.9
2023-02-06T06:01:30.000Z,92
2023-02-06T06:02:46.000Z,92.1
2023-02-06T06:04:02.000Z,92.1
2023-02-06T06:05:18.000Z,92.1
2023-02-06T06:06:34.000Z,91.9
2023-02-06T06:07:50.000Z,91.8
2023-02-06T06:09:07.000Z,91.9
2023-02-06T06:10:23.454Z,91.8
2023-02-06T06:11:39.000Z,91.7
2023-02-06T06:12:56.000Z,91.7
2023-02-06T06:14:12.000Z,91.7
2023-02-06T06:15:28.000Z,91.6
2023-02-06T06:16:44.000Z,91.5
2023-02-06T06:18:01.000Z,91.7
2023-02-06T06:19:17.000Z,91.8
2023-02-06T06:20:32.000Z,91.8
2023-02-06T06:21:48.000Z,92
2023-02-06T06:23:05.033Z,92
2023-02-06T06:24:21.000Z,92
2023-02-06T06:25:37.525Z,92.1
2023-02-06T06:26:53.000Z,92.2
2023-02-06T06:28:10.000Z,92.3
2023-02-06T06:29:26.000Z,92.5
2023-02-06T06:30:42.000Z,92.5
2023-02-06T06:31:58.000Z,92.9
2023-02-06T06:33:15.000Z,92.8
2023-02-06T06:34:31.000Z,92.7
2023-02-06T06:35:47.000Z,92.9
2023-02-06T06:37:02.000Z,92.8
2023-02-06T06:38:18.000Z,93
2023-02-06T06:39:35.000Z,93.5
2023-02-06T06:40:51.000Z,93.3
2023-02-06T06:42:07.673Z,93.1
2023-02-06T06:43:23.000Z,93.3
2023-02-06T06:44:40.000Z,93.5
2023-02-06T06:45:56.000Z,93.5
2023-02-06T06:47:12.000Z,93.8
2023-02-06T06:48:28.000Z,93.9
2023-02-06T06:49:45.000Z,94.1
2023-02-06T06:51:01.000Z,94.3
2023-02-06T06:52:17.582Z,94.6
2023-02-06T06:53:33.000Z,94.7
2023-02-06T06:54:49.000Z,94.7
2023-02-06T06:56:05.000Z,94.7
2023-02-06T06:57:21.000Z,94.7
2023-02-06T06:58:37.000Z,94.6
2023-02-06T06:59:54.000Z,94.7
2023-02-06T07:01:10.000Z,94.6
2023-02-06T07:02:26.000Z,94.7
2023-02-06T07:03:42.000Z,94.7
2023-02-06T07:04:59.000Z,94.6
2023-02-06T07:06:15.000Z,94.6
2023-02-06T07:07:31.000Z,94.7
2023-02-06T07:08:47.000Z,94.7
2023-02-06T07:10:04.000Z,94.7
2023-02-06T07:11:20.000Z,94.8
2023-02-06T07:12:35.000Z,94.8
2023-02-06T07:13:51.000Z,94.6
2023-02-06T07:15:07.000Z,94.6
2023-02-06T07:16:24.000Z,94.6
2023-02-06T07:17:40.000Z,94.4
2023-02-06T07:18:56.000Z,94.3
2023-02-06T07:20:12.000Z,94.2
2023-02-06T07:21:29.000Z,94.2
2023-02-06T07:22:45.000Z,94.1
2023-02-06T07:24:01.000Z,94.1
2023-02-06T07:25:17.000Z,94.1
2023-02-06T07:26:34.090Z,94.2
2023-02-06T07:27:50.000Z,94.3
2023-02-06T07:29:06.000Z,94.3
2023-02-06T07:30:21.000Z,94.5
2023-02-06T07:31:38.000Z,94.6
2023-02-06T07:32:54.000Z,94.5
2023-02-06T07:34:10.000Z,94.4
2023-02-06T07:35:26.000Z,94.3
2023-02-06T07:36:43.000Z,94.2
2023-02-06T07:37:59.000Z,94.1
2023-02-06T07:39:15.000Z,94
2023-02-06T07:40:31.000Z,94
2023-02-06T07:41:48.000Z,93.9
2023-02-06T07:43:04.000Z,93.8
2023-02-06T07:44:20.000Z,93.8
2023-02-06T07:45:36.000Z,93.7
2023-02-06T07:46:53.000Z,93.7
2023-02-06T07:48:08.000Z,93.7
2023-02-06T07:49:24.000Z,93.7
2023-02-06T07:50:40.000Z,93.9
2023-02-06T07:51:56.000Z,93.9
2023-02-06T07:53:13.000Z,93.9
2023-02-06T07:54:29.000Z,93.8
2023-02-06T07:55:45.000Z,93.7
2023-02-06T07:57:01.913Z,93.5
2023-02-06T07:58:18.000Z,93.5
2023-02-06T07:59:34.000Z,93.5
2023-02-06T08:00:50.000Z,93.5
2023-02-06T08:02:06.000Z,93.6
2023-02-06T08:03:23.000Z,93.7
2023-02-06T08:04:39.000Z,93.6
2023-02-06T08:05:54.000Z,93.5
2023-02-06T08:07:10.000Z,93.6
2023-02-06T08:08:27.000Z,93.7
2023-02-06T08:09:43.000Z,93.8
2023-02-06T08:10:59.555Z,94
2023-02-06T08:12:15.000Z,94.2
2023-02-06T08:13:32.000Z,94.3
2023-02-06T08:14:48.000Z,94.4
2023-02-06T08:16:04.000Z,94.6
2023-02-06T08:17:20.000Z,94.9
2023-02-06T08:18:37.000Z,95.1
2023-02-06T08:19:53.239Z,95.4
2023-02-06T08:21:09.494Z,95.6
2023-02-06T08:22:25.000Z,95.6
2023-02-06T08:23:41.000Z,95.7
2023-02-06T08:24:57.000Z,95.8
2023-02-06T08:26:13.477Z,95.9
2023-02-06T08:27:29.000Z,95.8
2023-02-06T08:28:45.000Z,95.7
2023-02-06T08:30:02.000Z,95.6
2023-02-06T08:32:34.000Z,95.6
2023-02-06T08:33:50.000Z,95.6
2023-02-06T08:35:07.000Z,95.5
2023-02-06T08:36:23.000Z,95.5
2023-02-06T08:37:39.000Z,95.5
2023-02-06T08:38:55.000Z,95.6
2023-02-06T08:40:12.000Z,95.6
2023-02-06T08:41:27.000Z,95.6
2023-02-06T08:42:43.000Z,95.7
2023-02-06T08:43:59.000Z,95.9
2023-02-06T08:45:16.000Z,96.1
2023-02-06T08:46:32.000Z,96.2
2023-02-06T08:47:48.000Z,96.2
2023-02-06T08:49:04.000Z,96.4
2023-02-06T08:50:21.000Z,96.4
2023-02-06T08:51:37.303Z,96.5
2023-02-06T08:52:53.506Z,96.6
2023-02-06T08:54:09.000Z,96.7
2023-02-06T08:55:26.000Z,96.8
2023-02-06T08:56:42.000Z,96.9
2023-02-06T08:57:58.503Z,97
2023-02-06T08:59:13.000Z,97.1
2023-02-06T09:00:30.000Z,97.2
2023-02-06T09:01:46.000Z,97.4
2023-02-06T09:03:02.000Z,97.7
2023-02-06T09:04:18.000Z,97.8
2023-02-06T09:05:34.000Z,98
2023-02-06T09:06:51.000Z,98
2023-02-06T09:08:07.000Z,98
2023-02-06T09:09:23.000Z,97.9
2023-02-06T09:10:39.000Z,98
2023-02-06T09:11:56.000Z,98
2023-02-06T09:13:12.000Z,98.1
2023-02-06T09:14:28.631Z,98.2
2023-02-06T09:15:44.000Z,98.2
2023-02-06T09:17:00.000Z,98.2
2023-02-06T09:18:16.000Z,98.2
2023-02-06T09:19:32.000Z,98.3
2023-02-06T09:20:48.000Z,98.2
2023-02-06T09:22:05.000Z,98.3
2023-02-06T09:23:21.000Z,98.4
2023-02-06T09:24:37.577Z,98.4
2023-02-06T09:25:53.816Z,98.4
2023-02-06T09:27:10.000Z,98.3
2023-02-06T09:28:26.000Z,98.3
2023-02-06T09:29:42.000Z,98.4
2023-02-06T09:30:58.000Z,98.6
2023-02-06T09:32:15.000Z,99
2023-02-06T09:33:31.000Z,99
2023-02-06T09:34:46.523Z,99.2
2023-02-06T09:36:02.729Z,99.3
2023-02-06T09:37:19.000Z,99.5
2023-02-06T09:38:35.237Z,99.3
2023-02-06T09:39:51.000Z,99.3
2023-02-06T09:41:07.000Z,99.3
2023-02-06T09:42:23.000Z,99.3
2023-02-06T09:43:40.000Z,99.4
2023-02-06T09:44:56.000Z,99.6
2023-02-06T09:46:12.648Z,99.7
2023-02-06T09:47:28.000Z,99.7
2023-02-06T09:48:45.000Z,99.7
2023-02-06T09:50:01.000Z,99.6
2023-02-06T09:51:17.629Z,99.5
2023-02-06T09:52:32.000Z,99.5
2023-02-06T09:53:49.000Z,99.5
2023-02-06T09:55:05.000Z,99.5
2023-02-06T09:56:21.000Z,99.5
2023-02-06T09:57:37.000Z,99.4
2023-02-06T09:58:54.000Z,99.3
2023-02-06T10:00:10.331Z,99.3
2023-02-06T10:01:26.000Z,99.3
2023-02-06T10:02:42.000Z,99.1
2023-02-06T10:03:58.000Z,99.1
2023-02-06T10:05:14.000Z,99.3
2023-02-06T10:06:30.000Z,99.2
2023-02-06T10:07:46.000Z,99
2023-02-06T10:09:03.012Z,98.7
2023-02-06T10:10:19.000Z,98.6
2023-02-06T10:11:35.000Z,98.6
2023-02-06T10:12:51.000Z,98.6
2023-02-06T10:14:08.000Z,98.7
2023-02-06T10:15:24.000Z,98.8
2023-02-06T10:16:40.000Z,98.7
2023-02-06T10:17:56.694Z,98.8
2023-02-06T10:19:12.000Z,98.8
2023-02-06T10:20:29.000Z,98.9
2023-02-06T10:21:44.000Z,98.9
2023-02-06T10:23:00.000Z,98.9
2023-02-06T10:24:16.000Z,98.8
2023-02-06T10:25:33.000Z,98.8
2023-02-06T10:26:49.000Z,98.8
2023-02-06T10:28:05.000Z,98.9
2023-02-06T10:29:21.907Z,98.9
2023-02-06T10:30:38.137Z,99
2023-02-06T10:31:54.000Z,99
2023-02-06T10:33:10.000Z,99
2023-02-06T10:34:26.000Z,98.8
2023-02-06T10:35:43.000Z,98.8
2023-02-06T10:36:59.000Z,98.8
2023-02-06T10:38:15.000Z,98.7
2023-02-06T10:39:30.000Z,98.8
2023-02-06T10:40:47.000Z,98.9
2023-02-06T10:42:03.314Z,98.9
2023-02-06T10:43:19.000Z,98.9
2023-02-06T10:44:35.000Z,98.8
2023-02-06T10:45:52.000Z,99
2023-02-06T10:47:08.000Z,99
2023-02-06T10:48:24.000Z,99
2023-02-06T10:49:40.000Z,98.9
2023-02-06T10:50:57.000Z,99
2023-02-06T10:52:13.229Z,98.8
2023-02-06T10:53:29.467Z,98.5
2023-02-06T10:54:45.000Z,98.5
2023-02-06T10:56:01.000Z,98.5
2023-02-06T10:57:17.225Z,98.8
2023-02-06T10:58:33.000Z,98.7
2023-02-06T10:59:49.000Z,98.8
2023-02-06T11:01:05.000Z,98.5
2023-02-06T11:02:22.000Z,98.5
2023-02-06T11:03:38.419Z,98.7
2023-02-06T11:04:54.668Z,98.5
2023-02-06T11:06:10.903Z,98.7
2023-02-06T11:07:27.154Z,98.8
2023-02-06T11:08:43.000Z,98.9
2023-02-06T11:09:59.000Z,99.1
2023-02-06T11:11:15.000Z,99.2
2023-02-06T11:12:32.000Z,99.1
2023-02-06T11:13:48.000Z,99.1
2023-02-06T11:15:03.576Z,99
2023-02-06T11:16:19.836Z,99.1
2023-02-06T11:17:36.057Z,99.1
2023-02-06T11:18:52.000Z,99.2
2023-02-06T11:20:08.000Z,99.2
2023-02-06T11:21:24.000Z,99.3
2023-02-06T11:22:41.000Z,99.3
2023-02-06T11:23:57.000Z,99.3
2023-02-06T11:25:13.000Z,99.1
2023-02-06T11:26:29.763Z,99.1
2023-02-06T11:27:46.009Z,99.2
2023-02-06T11:29:02.000Z,98.9
2023-02-06T11:30:18.469Z,98.8
2023-02-06T11:31:34.000Z,98.5
2023-02-06T11:32:50.000Z,98.5
2023-02-06T11:34:06.199Z,98.3
2023-02-06T11:35:22.000Z,98.2
2023-02-06T11:36:38.000Z,98.3
2023-02-06T11:37:54.953Z,98.1
2023-02-06T11:39:11.178Z,98
2023-02-06T11:40:27.422Z,98
2023-02-06T11:41:43.000Z,97.8
2023-02-06T11:42:59.000Z,97.8
2023-02-06T11:44:16.000Z,97.6
2023-02-06T11:45:32.000Z,97.6
2023-02-06T11:46:48.000Z,97.6
2023-02-06T11:48:04.856Z,97.7
2023-02-06T11:49:21.112Z,97.8
2023-02-06T11:50:36.354Z,98.1
2023-02-06T11:51:52.000Z,98.1
2023-02-06T11:53:08.000Z,98
2023-02-06T11:54:25.000Z,98
2023-02-06T11:55:41.296Z,97.7
2023-02-06T11:56:57.000Z,97.8
2023-02-06T11:58:13.000Z,97.7
2023-02-06T11:59:30.049Z,97.6
2023-02-06T12:00:46.258Z,97.7
2023-02-06T12:02:02.000Z,97.7
2023-02-06T12:03:18.000Z,97.7
2023-02-06T12:04:35.000Z,97.6
2023-02-06T12:05:51.000Z,97.7
2023-02-06T12:07:07.000Z,97.8
2023-02-06T12:08:22.000Z,97.9
2023-02-06T12:09:39.000Z,97.9
2023-02-06T12:10:55.195Z,97.8
2023-02-06T12:12:11.462Z,97.9
2023-02-06T12:13:27.000Z,97.8
2023-02-06T12:14:43.000Z,97.9
2023-02-06T12:16:00.000Z,98.2
2023-02-06T12:17:16.000Z,98.2
2023-02-06T12:18:32.000Z,97.7
2023-02-06T12:19:48.000Z,97.6
2023-02-06T12:21:05.120Z,97.4
2023-02-06T12:22:21.365Z,97.6
2023-02-06T12:23:37.000Z,97.8
2023-02-06T12:24:53.000Z,97.9
2023-02-06T12:26:09.097Z,97.8
2023-02-06T12:27:25.000Z,97.8
2023-02-06T12:28:41.000Z,97.6
2023-02-06T12:29:57.000Z,97.6
2023-02-06T12:31:14.000Z,97.9
2023-02-06T12:32:30.318Z,97.9
2023-02-06T12:33:46.557Z,98
2023-02-06T12:35:02.000Z,98.1
2023-02-06T12:36:19.000Z,98.2
2023-02-06T12:37:35.000Z,98.5
2023-02-06T12:38:51.531Z,98.8
2023-02-06T12:40:07.000Z,98.5
2023-02-06T12:41:24.000Z,98.5
2023-02-06T12:42:40.245Z,98.7
2023-02-06T12:43:56.582Z,98.8
2023-02-06T12:45:12.000Z,98.7
2023-02-06T12:46:29.000Z,98.5
2023-02-06T12:47:45.000Z,98.7
2023-02-06T12:49:01.000Z,98.7
2023-02-06T12:50:17.000Z,98.8
2023-02-06T12:51:34.000Z,98.8
2023-02-06T12:52:50.286Z,98.8
2023-02-06T12:54:06.530Z,98.7
2023-02-06T12:55:22.000Z,98.2
2023-02-06T12:56:39.000Z,98.2
2023-02-06T12:57:55.000Z,98.3
2023-02-06T12:59:11.490Z,98.1
2023-02-06T13:00:26.000Z,98
2023-02-06T13:01:43.000Z,98.1
2023-02-06T13:02:59.000Z,98
2023-02-06T13:04:15.458Z,98.1
2023-02-06T13:05:31.699Z,97.7
2023-02-06T13:06:47.000Z,97.6
2023-02-06T13:08:04.000Z,96.9
2023-02-06T13:09:20.000Z,96.4
2023-02-06T13:10:36.000Z,96.2
2023-02-06T13:11:52.887Z,95.6
2023-02-06T13:13:09.000Z,95.7
2023-02-06T13:14:25.361Z,95.3
2023-02-06T13:15:41.635Z,95
2023-02-06T13:16:56.860Z,94.3
2023-02-06T13:18:13.000Z,94.4
2023-02-06T13:19:29.000Z,94.8
2023-02-06T13:20:45.000Z,94.9
2023-02-06T13:22:01.000Z,95
2023-02-06T13:23:18.000Z,95
2023-02-06T13:24:34.000Z,95.1
2023-02-06T13:25:50.577Z,95.4
2023-02-06T13:27:06.817Z,95.6
2023-02-06T13:28:23.023Z,95.8
2023-02-06T13:29:39.000Z,96.2
2023-02-06T13:30:55.000Z,96.2
2023-02-06T13:32:11.000Z,95.7
2023-02-06T13:33:27.000Z,95.3
2023-02-06T13:34:43.273Z,95.2
2023-02-06T13:35:59.000Z,95.3
2023-02-06T13:37:15.000Z,95.2
2023-02-06T13:38:31.988Z,95.3
2023-02-06T13:39:48.228Z,95
2023-02-06T13:41:04.000Z,95.3
2023-02-06T13:42:20.000Z,95.4
2023-02-06T13:43:36.000Z,95.3
2023-02-06T13:44:53.000Z,95
2023-02-06T13:46:09.000Z,95.3
2023-02-06T13:47:25.000Z,95.5
2023-02-06T13:48:41.947Z,95
2023-02-06T13:49:57.190Z,94.9
2023-02-06T13:51:13.000Z,95.2
2023-02-06T13:52:29.652Z,95.6
2023-02-06T13:53:45.000Z,95
2023-02-06T13:55:02.000Z,94.7
2023-02-06T13:56:18.000Z,93.8
2023-02-06T13:57:34.000Z,93.8
2023-02-06T13:58:50.871Z,93.6
2023-02-06T14:00:07.109Z,93.7
2023-02-06T14:01:23.000Z,93.8
2023-02-06T14:02:39.000Z,94
2023-02-06T14:03:55.000Z,93.8
2023-02-06T14:05:12.000Z,94
2023-02-06T14:06:28.000Z,94.2
2023-02-06T14:07:43.567Z,94.4
2023-02-06T14:08:59.000Z,94.5
2023-02-06T14:10:16.054Z,94.7
2023-02-06T14:11:32.300Z,95.2
2023-02-06T14:12:48.534Z,95.3
2023-02-06T14:14:04.000Z,95.5
2023-02-06T14:15:21.000Z,95.5
2023-02-06T14:16:37.000Z,95.7
2023-02-06T14:17:53.000Z,95.8
2023-02-06T14:19:08.000Z,95.2
2023-02-06T14:20:24.998Z,95.5
2023-02-06T14:21:41.000Z,95.7
2023-02-06T14:22:57.488Z,94.5
2023-02-06T14:24:13.722Z,94
2023-02-06T14:25:29.966Z,93.8
2023-02-06T14:26:46.209Z,93.4
2023-02-06T14:28:02.440Z,92.9
2023-02-06T14:29:18.000Z,92.8
2023-02-06T14:30:34.000Z,92.9
2023-02-06T14:31:51.000Z,93.3
2023-02-06T14:33:07.396Z,93.4
2023-02-06T14:34:23.626Z,93.8
2023-02-06T14:35:39.000Z,93.9
2023-02-06T14:36:56.117Z,94
2023-02-06T14:38:11.000Z,94.3
2023-02-06T14:39:27.000Z,95
2023-02-06T14:40:43.000Z,95.2
2023-02-06T14:42:00.000Z,95.3
2023-02-06T14:43:16.000Z,95.5
2023-02-06T14:44:32.588Z,95.1
2023-02-06T14:45:48.802Z,95.8
2023-02-06T14:47:05.000Z,95.8
2023-02-06T14:48:21.000Z,95.7
2023-02-06T14:49:37.000Z,95.8
2023-02-06T14:50:53.758Z,95.5
2023-02-06T14:52:10.000Z,95.3
2023-02-06T14:53:26.000Z,95.2
2023-02-06T14:54:41.000Z,95.1
2023-02-06T14:55:57.760Z,95.2
2023-02-06T14:57:13.999Z,95.2
2023-02-06T14:58:30.000Z,95.3
2023-02-06T14:59:46.000Z,95.2
2023-02-06T15:01:02.000Z,94.5
2023-02-06T15:02:18.000Z,94.5
2023-02-06T15:03:35.000Z,94.2
2023-02-06T15:04:51.000Z,94.3
2023-02-06T15:06:07.659Z,94.2
2023-02-06T15:07:23.933Z,94.3
2023-02-06T15:08:40.000Z,93.2
2023-02-06T15:09:56.000Z,92.8
2023-02-06T15:11:12.000Z,92.8
2023-02-06T15:12:27.000Z,92.7
2023-02-06T15:13:44.000Z,92.9
2023-02-06T15:15:00.000Z,93.4
2023-02-06T15:16:16.000Z,93.2
2023-02-06T15:17:32.853Z,93
2023-02-06T15:18:49.076Z,92.8
2023-02-06T15:20:05.000Z,92.8
2023-02-06T15:21:21.575Z,92.5
2023-02-06T15:22:37.000Z,92.5
2023-02-06T15:23:54.000Z,92.5
2023-02-06T15:25:10.000Z,93
2023-02-06T15:26:26.537Z,93.3
2023-02-06T15:27:42.000Z,93.4
2023-02-06T15:28:59.000Z,93.4
2023-02-06T15:30:14.000Z,93.3
2023-02-06T15:31:30.000Z,92.7
2023-02-06T15:32:46.000Z,93
2023-02-06T15:34:03.000Z,93.2
2023-02-06T15:35:19.000Z,93.4
2023-02-06T15:36:35.000Z,93.7
2023-02-06T15:37:51.000Z,93.3
2023-02-06T15:39:07.000Z,93.5
2023-02-06T15:40:24.000Z,93.7
2023-02-06T15:41:40.000Z,93.5
2023-02-06T15:42:56.000Z,93.6
2023-02-06T15:44:12.000Z,93.6
2023-02-06T15:45:29.000Z,93.8
2023-02-06T15:46:45.000Z,93.8
2023-02-06T15:48:00.000Z,94
2023-02-06T15:49:16.903Z,94.2
2023-02-06T15:50:33.113Z,94.3
2023-02-06T15:51:49.000Z,94.4
2023-02-06T15:53:05.000Z,94.3
2023-02-06T15:54:21.000Z,94.4
2023-02-06T15:55:38.000Z,94.5
2023-02-06T15:56:54.000Z,94.7
2023-02-06T15:58:10.000Z,95
2023-02-06T15:59:26.800Z,95
2023-02-06T16:00:43.045Z,95.4
2023-02-06T16:01:59.000Z,95.2
2023-02-06T16:03:15.000Z,95.1
2023-02-06T16:04:31.000Z,94.8
2023-02-06T16:05:48.000Z,94.8
2023-02-06T16:07:04.000Z,94.6
2023-02-06T16:08:20.000Z,94.4
2023-02-06T16:09:36.000Z,94
2023-02-06T16:10:53.104Z,94.4
2023-02-06T16:12:09.347Z,94.5
2023-02-06T16:13:25.000Z,94.4
2023-02-06T16:14:41.000Z,94.5
2023-02-06T16:15:58.070Z,94.7
2023-02-06T16:17:14.000Z,94.6
2023-02-06T16:18:30.000Z,94.7
2023-02-06T16:19:46.811Z,94.8
2023-02-06T16:21:02.000Z,95.1
2023-02-06T16:22:18.322Z,95.1
2023-02-06T16:23:34.539Z,95.3
2023-02-06T16:24:50.000Z,95.3
2023-02-06T16:26:07.000Z,95.4
2023-02-06T16:27:23.000Z,95.3
2023-02-06T16:28:39.000Z,95.4
2023-02-06T16:29:55.000Z,95.4
2023-02-06T16:31:11.990Z,95.4
2023-02-06T16:32:28.216Z,95.6
2023-02-06T16:33:44.472Z,95.6
2023-02-06T16:35:00.000Z,95.6
2023-02-06T16:36:16.000Z,95.8
2023-02-06T16:37:32.000Z,95.6
2023-02-06T16:38:48.000Z,94.6
2023-02-06T16:40:04.000Z,94.4
2023-02-06T16:41:20.000Z,94.5
2023-02-06T16:42:37.000Z,94.6
2023-02-06T16:43:53.461Z,94.3
2023-02-06T16:45:09.680Z,94.4
2023-02-06T16:46:25.000Z,94.4
2023-02-06T16:47:42.000Z,94.3
2023-02-06T16:48:58.000Z,94
2023-02-06T16:50:14.787Z,94.2
2023-02-06T16:51:31.000Z,94.3
2023-02-06T16:52:47.000Z,94.2
2023-02-06T16:54:02.672Z,94.3
2023-02-06T16:55:19.000Z,94.3
2023-02-06T16:56:35.000Z,94.3
2023-02-06T16:57:51.535Z,94.2
2023-02-06T16:59:07.000Z,94.2
2023-02-06T17:00:24.000Z,94.3
2023-02-06T17:01:40.000Z,94.5